sensor_id;sensor_type;location;lat;lon;timestamp;temperature;humidity
45969;DHT22;31676;40.444;-3.668;2022-07-21T00:00:41;28.80;70.20
45969;DHT22;31676;40.444;-3.668;2022-07-21T00:03:06;28.80;70.20
45969;DHT22;31676;40.444;-3.668;2022-07-21T00:05:32;28.80;70.20
45969;DHT22;31676;40.444;-3.668;2022-07-21T00:07:58;28.80;70.20
45969;DHT22;31676;40.444;-3.668;2022-07-21T00:10:24;28.80;70.20
45969;DHT22;31676;40.444;-3.668;2022-07-21T00:12:50;28.80;70.20
45969;DHT22;31676;40.444;-3.668;2022-07-21T00:15:17;28.80;70.20
45969;DHT22;31676;40.444;-3.668;2022-07-21T00:17:43;28.80;70.90
45969;DHT22;31676;40.444;-3.668;2022-07-21T00:20:09;28.80;70.90
45969;DHT22;31676;40.444;-3.668;2022-07-21T00:22:35;28.80;70.30
45969;DHT22;31676;40.444;-3.668;2022-07-21T00:25:01;28.80;70.20
45969;DHT22;31676;40.444;-3.668;2022-07-21T00:27:27;28.80;70.30
45969;DHT22;31676;40.444;-3.668;2022-07-21T00:29:53;28.80;70.20
45969;DHT22;31676;40.444;-3.668;2022-07-21T00:32:18;28.80;70.30
45969;DHT22;31676;40.444;-3.668;2022-07-21T00:34:44;28.80;70.20
45969;DHT22;31676;40.444;-3.668;2022-07-21T00:37:10;28.80;70.30
45969;DHT22;31676;40.444;-3.668;2022-07-21T00:39:36;28.80;70.30
45969;DHT22;31676;40.444;-3.668;2022-07-21T00:42:02;28.80;70.30
45969;DHT22;31676;40.444;-3.668;2022-07-21T00:44:28;28.80;70.30
45969;DHT22;31676;40.444;-3.668;2022-07-21T00:46:54;28.80;70.30
45969;DHT22;31676;40.444;-3.668;2022-07-21T00:49:20;28.80;70.40
45969;DHT22;31676;40.444;-3.668;2022-07-21T00:51:46;28.80;70.40
45969;DHT22;31676;40.444;-3.668;2022-07-21T00:54:12;28.80;70.40
45969;DHT22;31676;40.444;-3.668;2022-07-21T00:56:39;28.80;70.40
45969;DHT22;31676;40.444;-3.668;2022-07-21T00:59:05;28.80;70.40
45969;DHT22;31676;40.444;-3.668;2022-07-21T01:01:30;28.80;70.30
45969;DHT22;31676;40.444;-3.668;2022-07-21T01:03:56;28.80;70.40
45969;DHT22;31676;40.444;-3.668;2022-07-21T01:06:25;28.80;70.40
45969;DHT22;31676;40.444;-3.668;2022-07-21T01:08:51;28.80;70.40
45969;DHT22;31676;40.444;-3.668;2022-07-21T01:11:18;28.80;70.40
45969;DHT22;31676;40.444;-3.668;2022-07-21T01:13:45;28.80;70.40
45969;DHT22;31676;40.444;-3.668;2022-07-21T01:16:11;28.80;70.40
45969;DHT22;31676;40.444;-3.668;2022-07-21T01:18:37;28.80;70.40
45969;DHT22;31676;40.444;-3.668;2022-07-21T01:21:03;28.80;70.40
45969;DHT22;31676;40.444;-3.668;2022-07-21T01:23:32;28.80;70.50
45969;DHT22;31676;40.444;-3.668;2022-07-21T01:25:58;28.80;70.50
45969;DHT22;31676;40.444;-3.668;2022-07-21T01:28:23;28.80;70.40
45969;DHT22;31676;40.444;-3.668;2022-07-21T01:30:49;28.80;70.40
45969;DHT22;31676;40.444;-3.668;2022-07-21T01:33:15;28.80;70.50
45969;DHT22;31676;40.444;-3.668;2022-07-21T01:35:41;28.80;70.50
45969;DHT22;31676;40.444;-3.668;2022-07-21T01:38:07;28.80;70.50
45969;DHT22;31676;40.444;-3.668;2022-07-21T01:40:57;28.80;70.50
45969;DHT22;31676;40.444;-3.668;2022-07-21T01:43:41;28.80;70.50
45969;DHT22;31676;40.444;-3.668;2022-07-21T01:46:08;28.80;70.50
45969;DHT22;31676;40.444;-3.668;2022-07-21T01:48:35;28.80;70.60
45969;DHT22;31676;40.444;-3.668;2022-07-21T01:51:01;28.80;70.60
45969;DHT22;31676;40.444;-3.668;2022-07-21T01:53:26;28.80;70.60
45969;DHT22;31676;40.444;-3.668;2022-07-21T01:55:52;28.70;70.50
45969;DHT22;31676;40.444;-3.668;2022-07-21T01:58:17;28.70;70.50
45969;DHT22;31676;40.444;-3.668;2022-07-21T02:00:43;28.80;70.50
45969;DHT22;31676;40.444;-3.668;2022-07-21T02:03:09;28.70;70.50
45969;DHT22;31676;40.444;-3.668;2022-07-21T02:05:35;28.70;70.50
45969;DHT22;31676;40.444;-3.668;2022-07-21T02:08:01;28.80;70.60
45969;DHT22;31676;40.444;-3.668;2022-07-21T02:10:26;28.70;70.50
45969;DHT22;31676;40.444;-3.668;2022-07-21T02:12:52;28.70;70.50
45969;DHT22;31676;40.444;-3.668;2022-07-21T02:15:18;28.70;70.50
45969;DHT22;31676;40.444;-3.668;2022-07-21T02:17:43;28.70;70.50
45969;DHT22;31676;40.444;-3.668;2022-07-21T02:20:09;28.70;70.60
45969;DHT22;31676;40.444;-3.668;2022-07-21T02:22:35;28.70;70.60
45969;DHT22;31676;40.444;-3.668;2022-07-21T02:25:01;28.70;71.20
45969;DHT22;31676;40.444;-3.668;2022-07-21T02:27:26;28.70;70.60
45969;DHT22;31676;40.444;-3.668;2022-07-21T02:29:52;28.70;70.60
45969;DHT22;31676;40.444;-3.668;2022-07-21T02:32:18;28.70;70.60
45969;DHT22;31676;40.444;-3.668;2022-07-21T02:34:43;28.70;70.60
45969;DHT22;31676;40.444;-3.668;2022-07-21T02:37:10;28.70;70.60
45969;DHT22;31676;40.444;-3.668;2022-07-21T02:39:36;28.70;70.60
45969;DHT22;31676;40.444;-3.668;2022-07-21T02:42:02;28.70;70.60
45969;DHT22;31676;40.444;-3.668;2022-07-21T02:44:28;28.70;70.70
45969;DHT22;31676;40.444;-3.668;2022-07-21T02:46:55;28.70;70.60
45969;DHT22;31676;40.444;-3.668;2022-07-21T02:49:21;28.70;70.60
45969;DHT22;31676;40.444;-3.668;2022-07-21T02:51:46;28.70;70.60
45969;DHT22;31676;40.444;-3.668;2022-07-21T02:54:12;28.70;70.60
45969;DHT22;31676;40.444;-3.668;2022-07-21T02:56:38;28.70;70.60
45969;DHT22;31676;40.444;-3.668;2022-07-21T02:59:04;28.70;70.60
45969;DHT22;31676;40.444;-3.668;2022-07-21T03:01:29;28.70;70.60
45969;DHT22;31676;40.444;-3.668;2022-07-21T03:03:55;28.70;70.60
45969;DHT22;31676;40.444;-3.668;2022-07-21T03:06:21;28.70;70.70
45969;DHT22;31676;40.444;-3.668;2022-07-21T03:08:46;28.70;70.70
45969;DHT22;31676;40.444;-3.668;2022-07-21T03:11:12;28.70;70.70
45969;DHT22;31676;40.444;-3.668;2022-07-21T03:13:38;28.70;70.70
45969;DHT22;31676;40.444;-3.668;2022-07-21T03:16:03;28.70;70.70
45969;DHT22;31676;40.444;-3.668;2022-07-21T03:18:29;28.70;70.70
45969;DHT22;31676;40.444;-3.668;2022-07-21T03:20:56;28.70;70.70
45969;DHT22;31676;40.444;-3.668;2022-07-21T03:23:22;28.70;70.70
45969;DHT22;31676;40.444;-3.668;2022-07-21T03:25:47;28.70;70.70
45969;DHT22;31676;40.444;-3.668;2022-07-21T03:28:13;28.70;70.70
45969;DHT22;31676;40.444;-3.668;2022-07-21T03:30:39;28.70;70.70
45969;DHT22;31676;40.444;-3.668;2022-07-21T03:33:05;28.70;70.70
45969;DHT22;31676;40.444;-3.668;2022-07-21T03:35:30;28.70;70.70
45969;DHT22;31676;40.444;-3.668;2022-07-21T03:37:57;28.70;70.70
45969;DHT22;31676;40.444;-3.668;2022-07-21T03:40:24;28.70;70.80
45969;DHT22;31676;40.444;-3.668;2022-07-21T03:42:51;28.70;70.80
45969;DHT22;31676;40.444;-3.668;2022-07-21T03:45:17;28.70;70.80
45969;DHT22;31676;40.444;-3.668;2022-07-21T03:47:43;28.70;70.80
45969;DHT22;31676;40.444;-3.668;2022-07-21T03:50:08;28.70;70.70
45969;DHT22;31676;40.444;-3.668;2022-07-21T03:52:34;28.70;70.80
45969;DHT22;31676;40.444;-3.668;2022-07-21T03:55:00;28.70;70.80
45969;DHT22;31676;40.444;-3.668;2022-07-21T03:57:38;28.70;70.80
45969;DHT22;31676;40.444;-3.668;2022-07-21T04:00:08;28.70;70.80
45969;DHT22;31676;40.444;-3.668;2022-07-21T04:02:37;28.70;70.90
45969;DHT22;31676;40.444;-3.668;2022-07-21T04:05:03;28.70;70.80
45969;DHT22;31676;40.444;-3.668;2022-07-21T04:07:29;28.70;70.80
45969;DHT22;31676;40.444;-3.668;2022-07-21T04:09:55;28.60;70.80
45969;DHT22;31676;40.444;-3.668;2022-07-21T04:12:24;28.60;70.80
45969;DHT22;31676;40.444;-3.668;2022-07-21T04:14:50;28.70;70.80
45969;DHT22;31676;40.444;-3.668;2022-07-21T04:17:16;28.60;70.70
45969;DHT22;31676;40.444;-3.668;2022-07-21T04:19:41;28.70;70.80
45969;DHT22;31676;40.444;-3.668;2022-07-21T04:22:07;28.60;70.70
45969;DHT22;31676;40.444;-3.668;2022-07-21T04:24:33;28.60;70.70
45969;DHT22;31676;40.444;-3.668;2022-07-21T04:26:58;28.70;70.80
45969;DHT22;31676;40.444;-3.668;2022-07-21T04:29:24;28.60;70.70
45969;DHT22;31676;40.444;-3.668;2022-07-21T04:31:50;28.60;70.70
45969;DHT22;31676;40.444;-3.668;2022-07-21T04:34:15;28.60;70.70
45969;DHT22;31676;40.444;-3.668;2022-07-21T04:36:41;28.60;70.80
45969;DHT22;31676;40.444;-3.668;2022-07-21T04:39:06;28.60;70.80
45969;DHT22;31676;40.444;-3.668;2022-07-21T04:41:32;28.60;70.80
45969;DHT22;31676;40.444;-3.668;2022-07-21T04:44:00;28.60;70.70
45969;DHT22;31676;40.444;-3.668;2022-07-21T04:46:26;28.60;70.80
45969;DHT22;31676;40.444;-3.668;2022-07-21T04:48:52;28.60;70.80
45969;DHT22;31676;40.444;-3.668;2022-07-21T04:51:17;28.60;70.80
45969;DHT22;31676;40.444;-3.668;2022-07-21T04:53:43;28.60;70.80
45969;DHT22;31676;40.444;-3.668;2022-07-21T04:56:08;28.60;70.80
45969;DHT22;31676;40.444;-3.668;2022-07-21T04:58:34;28.60;70.80
45969;DHT22;31676;40.444;-3.668;2022-07-21T05:01:00;28.60;70.80
45969;DHT22;31676;40.444;-3.668;2022-07-21T05:03:25;28.60;70.80
45969;DHT22;31676;40.444;-3.668;2022-07-21T05:05:51;28.60;70.80
45969;DHT22;31676;40.444;-3.668;2022-07-21T05:08:17;28.60;70.80
45969;DHT22;31676;40.444;-3.668;2022-07-21T05:10:42;28.60;70.80
45969;DHT22;31676;40.444;-3.668;2022-07-21T05:13:08;28.60;70.80
45969;DHT22;31676;40.444;-3.668;2022-07-21T05:15:34;28.60;70.80
45969;DHT22;31676;40.444;-3.668;2022-07-21T05:17:59;28.60;70.90
45969;DHT22;31676;40.444;-3.668;2022-07-21T05:20:25;28.60;70.90
45969;DHT22;31676;40.444;-3.668;2022-07-21T05:22:51;28.60;70.90
45969;DHT22;31676;40.444;-3.668;2022-07-21T05:25:16;28.60;70.90
45969;DHT22;31676;40.444;-3.668;2022-07-21T05:27:42;28.60;70.90
45969;DHT22;31676;40.444;-3.668;2022-07-21T05:30:08;28.60;70.90
45969;DHT22;31676;40.444;-3.668;2022-07-21T05:32:34;28.60;70.90
45969;DHT22;31676;40.444;-3.668;2022-07-21T05:34:59;28.60;70.90
45969;DHT22;31676;40.444;-3.668;2022-07-21T05:37:25;28.60;70.90
45969;DHT22;31676;40.444;-3.668;2022-07-21T05:39:52;28.60;70.90
45969;DHT22;31676;40.444;-3.668;2022-07-21T05:42:18;28.60;70.90
45969;DHT22;31676;40.444;-3.668;2022-07-21T05:44:44;28.60;71.00
45969;DHT22;31676;40.444;-3.668;2022-07-21T05:47:09;28.60;70.90
45969;DHT22;31676;40.444;-3.668;2022-07-21T05:49:35;28.60;70.90
45969;DHT22;31676;40.444;-3.668;2022-07-21T05:52:01;28.60;71.00
45969;DHT22;31676;40.444;-3.668;2022-07-21T05:54:26;28.60;71.00
45969;DHT22;31676;40.444;-3.668;2022-07-21T05:56:52;28.60;71.00
45969;DHT22;31676;40.444;-3.668;2022-07-21T05:59:18;28.60;71.00
45969;DHT22;31676;40.444;-3.668;2022-07-21T06:01:43;28.60;71.00
45969;DHT22;31676;40.444;-3.668;2022-07-21T06:04:09;28.60;71.00
45969;DHT22;31676;40.444;-3.668;2022-07-21T06:06:35;28.60;71.00
45969;DHT22;31676;40.444;-3.668;2022-07-21T06:09:00;28.60;71.00
45969;DHT22;31676;40.444;-3.668;2022-07-21T06:11:26;28.60;71.00
45969;DHT22;31676;40.444;-3.668;2022-07-21T06:13:52;28.60;71.00
45969;DHT22;31676;40.444;-3.668;2022-07-21T06:16:18;28.60;71.00
45969;DHT22;31676;40.444;-3.668;2022-07-21T06:18:44;28.60;71.00
45969;DHT22;31676;40.444;-3.668;2022-07-21T06:21:09;28.60;71.00
45969;DHT22;31676;40.444;-3.668;2022-07-21T06:23:35;28.60;71.00
45969;DHT22;31676;40.444;-3.668;2022-07-21T06:26:01;28.60;71.00
45969;DHT22;31676;40.444;-3.668;2022-07-21T06:28:27;28.60;71.00
45969;DHT22;31676;40.444;-3.668;2022-07-21T06:30:52;28.60;71.00
45969;DHT22;31676;40.444;-3.668;2022-07-21T06:33:18;28.60;71.00
45969;DHT22;31676;40.444;-3.668;2022-07-21T06:35:44;28.60;71.00
45969;DHT22;31676;40.444;-3.668;2022-07-21T06:38:09;28.60;71.00
45969;DHT22;31676;40.444;-3.668;2022-07-21T06:40:35;28.60;71.00
45969;DHT22;31676;40.444;-3.668;2022-07-21T06:43:01;28.50;70.90
45969;DHT22;31676;40.444;-3.668;2022-07-21T06:45:27;28.50;71.60
45969;DHT22;31676;40.444;-3.668;2022-07-21T06:48:03;28.50;70.90
45969;DHT22;31676;40.444;-3.668;2022-07-21T06:50:29;28.50;70.90
45969;DHT22;31676;40.444;-3.668;2022-07-21T06:52:55;28.50;70.90
45969;DHT22;31676;40.444;-3.668;2022-07-21T06:55:20;28.50;70.90
45969;DHT22;31676;40.444;-3.668;2022-07-21T06:57:46;28.50;70.90
45969;DHT22;31676;40.444;-3.668;2022-07-21T07:00:12;28.50;70.90
45969;DHT22;31676;40.444;-3.668;2022-07-21T07:02:38;28.50;70.90
45969;DHT22;31676;40.444;-3.668;2022-07-21T07:05:03;28.50;70.90
45969;DHT22;31676;40.444;-3.668;2022-07-21T07:07:29;28.50;70.90
45969;DHT22;31676;40.444;-3.668;2022-07-21T07:09:56;28.50;70.90
45969;DHT22;31676;40.444;-3.668;2022-07-21T07:12:21;28.50;70.90
45969;DHT22;31676;40.444;-3.668;2022-07-21T07:14:47;28.50;70.90
45969;DHT22;31676;40.444;-3.668;2022-07-21T07:17:17;28.50;70.90
45969;DHT22;31676;40.444;-3.668;2022-07-21T07:19:46;28.50;70.90
45969;DHT22;31676;40.444;-3.668;2022-07-21T07:22:12;28.50;70.90
45969;DHT22;31676;40.444;-3.668;2022-07-21T07:24:37;28.50;70.90
45969;DHT22;31676;40.444;-3.668;2022-07-21T07:27:03;28.50;70.90
45969;DHT22;31676;40.444;-3.668;2022-07-21T07:29:29;28.50;70.90
45969;DHT22;31676;40.444;-3.668;2022-07-21T07:31:57;28.50;70.90
45969;DHT22;31676;40.444;-3.668;2022-07-21T07:34:22;28.50;70.90
45969;DHT22;31676;40.444;-3.668;2022-07-21T07:36:48;28.50;71.00
45969;DHT22;31676;40.444;-3.668;2022-07-21T07:39:14;28.50;71.00
45969;DHT22;31676;40.444;-3.668;2022-07-21T07:41:41;28.50;70.90
45969;DHT22;31676;40.444;-3.668;2022-07-21T07:44:07;28.50;70.90
45969;DHT22;31676;40.444;-3.668;2022-07-21T07:46:32;28.50;70.90
45969;DHT22;31676;40.444;-3.668;2022-07-21T07:48:58;28.50;70.90
45969;DHT22;31676;40.444;-3.668;2022-07-21T07:51:25;28.50;70.90
45969;DHT22;31676;40.444;-3.668;2022-07-21T07:53:50;28.40;70.90
45969;DHT22;31676;40.444;-3.668;2022-07-21T07:56:16;28.50;70.90
45969;DHT22;31676;40.444;-3.668;2022-07-21T07:58:42;28.50;70.90
45969;DHT22;31676;40.444;-3.668;2022-07-21T08:01:08;28.50;70.90
45969;DHT22;31676;40.444;-3.668;2022-07-21T08:03:34;28.50;70.90
45969;DHT22;31676;40.444;-3.668;2022-07-21T08:06:03;28.40;70.80
45969;DHT22;31676;40.444;-3.668;2022-07-21T08:08:31;28.50;70.90
45969;DHT22;31676;40.444;-3.668;2022-07-21T08:10:57;28.50;70.90
45969;DHT22;31676;40.444;-3.668;2022-07-21T08:13:22;28.50;70.90
45969;DHT22;31676;40.444;-3.668;2022-07-21T08:15:49;28.50;70.90
45969;DHT22;31676;40.444;-3.668;2022-07-21T08:18:15;28.50;70.90
45969;DHT22;31676;40.444;-3.668;2022-07-21T08:20:41;28.50;70.90
45969;DHT22;31676;40.444;-3.668;2022-07-21T08:23:07;28.50;70.90
45969;DHT22;31676;40.444;-3.668;2022-07-21T08:25:33;28.50;70.90
45969;DHT22;31676;40.444;-3.668;2022-07-21T08:27:58;28.50;70.90
45969;DHT22;31676;40.444;-3.668;2022-07-21T08:30:24;28.50;70.90
45969;DHT22;31676;40.444;-3.668;2022-07-21T08:32:50;28.50;70.90
45969;DHT22;31676;40.444;-3.668;2022-07-21T08:35:16;28.50;70.90
45969;DHT22;31676;40.444;-3.668;2022-07-21T08:37:42;28.50;70.90
45969;DHT22;31676;40.444;-3.668;2022-07-21T08:40:08;28.50;70.90
45969;DHT22;31676;40.444;-3.668;2022-07-21T08:42:34;28.50;70.80
45969;DHT22;31676;40.444;-3.668;2022-07-21T08:45:00;28.40;70.80
45969;DHT22;31676;40.444;-3.668;2022-07-21T08:47:26;28.50;70.80
45969;DHT22;31676;40.444;-3.668;2022-07-21T08:49:53;28.50;70.80
45969;DHT22;31676;40.444;-3.668;2022-07-21T08:52:19;28.40;70.80
45969;DHT22;31676;40.444;-3.668;2022-07-21T08:54:44;28.50;70.80
45969;DHT22;31676;40.444;-3.668;2022-07-21T08:57:10;28.50;70.80
45969;DHT22;31676;40.444;-3.668;2022-07-21T08:59:36;28.50;70.80
45969;DHT22;31676;40.444;-3.668;2022-07-21T09:02:02;28.50;70.70
45969;DHT22;31676;40.444;-3.668;2022-07-21T09:04:32;28.50;70.70
45969;DHT22;31676;40.444;-3.668;2022-07-21T09:07:03;28.50;70.70
45969;DHT22;31676;40.444;-3.668;2022-07-21T09:09:29;28.50;70.70
45969;DHT22;31676;40.444;-3.668;2022-07-21T09:11:55;28.50;70.70
45969;DHT22;31676;40.444;-3.668;2022-07-21T09:14:24;28.50;70.70
45969;DHT22;31676;40.444;-3.668;2022-07-21T09:16:52;28.50;70.70
45969;DHT22;31676;40.444;-3.668;2022-07-21T09:19:38;28.50;70.70
45969;DHT22;31676;40.444;-3.668;2022-07-21T09:22:14;28.50;70.70
45969;DHT22;31676;40.444;-3.668;2022-07-21T09:24:43;28.50;70.70
45969;DHT22;31676;40.444;-3.668;2022-07-21T09:27:22;28.50;70.70
45969;DHT22;31676;40.444;-3.668;2022-07-21T09:29:58;28.50;70.60
45969;DHT22;31676;40.444;-3.668;2022-07-21T09:32:25;28.50;70.60
45969;DHT22;31676;40.444;-3.668;2022-07-21T09:34:52;28.50;70.60
45969;DHT22;31676;40.444;-3.668;2022-07-21T09:37:19;28.50;70.60
45969;DHT22;31676;40.444;-3.668;2022-07-21T09:39:50;28.60;70.70
45969;DHT22;31676;40.444;-3.668;2022-07-21T09:44:46;28.60;70.60
45969;DHT22;31676;40.444;-3.668;2022-07-21T09:47:12;28.60;70.60
45969;DHT22;31676;40.444;-3.668;2022-07-21T09:49:39;28.50;70.60
45969;DHT22;31676;40.444;-3.668;2022-07-21T09:54:50;28.60;70.60
45969;DHT22;31676;40.444;-3.668;2022-07-21T09:57:16;28.60;70.60
45969;DHT22;31676;40.444;-3.668;2022-07-21T09:59:42;28.60;70.60
45969;DHT22;31676;40.444;-3.668;2022-07-21T10:02:09;28.60;70.60
45969;DHT22;31676;40.444;-3.668;2022-07-21T10:04:38;28.60;70.60
45969;DHT22;31676;40.444;-3.668;2022-07-21T10:07:04;28.60;70.50
45969;DHT22;31676;40.444;-3.668;2022-07-21T10:09:29;28.60;70.50
45969;DHT22;31676;40.444;-3.668;2022-07-21T10:11:55;28.60;70.50
45969;DHT22;31676;40.444;-3.668;2022-07-21T10:14:21;28.60;70.50
45969;DHT22;31676;40.444;-3.668;2022-07-21T10:16:47;28.60;70.50
45969;DHT22;31676;40.444;-3.668;2022-07-21T10:19:14;28.60;70.50
45969;DHT22;31676;40.444;-3.668;2022-07-21T10:21:43;28.50;70.40
45969;DHT22;31676;40.444;-3.668;2022-07-21T10:24:11;28.60;70.40
45969;DHT22;31676;40.444;-3.668;2022-07-21T10:26:38;28.60;70.40
45969;DHT22;31676;40.444;-3.668;2022-07-21T10:29:04;28.60;70.40
45969;DHT22;31676;40.444;-3.668;2022-07-21T10:31:30;28.60;70.40
45969;DHT22;31676;40.444;-3.668;2022-07-21T10:33:59;28.60;70.40
45969;DHT22;31676;40.444;-3.668;2022-07-21T10:41:37;28.60;70.40
45969;DHT22;31676;40.444;-3.668;2022-07-21T10:44:09;28.60;70.40
45969;DHT22;31676;40.444;-3.668;2022-07-21T10:49:40;28.70;70.40
45969;DHT22;31676;40.444;-3.668;2022-07-21T10:52:20;28.70;70.40
45969;DHT22;31676;40.444;-3.668;2022-07-21T10:57:36;28.70;70.40
45969;DHT22;31676;40.444;-3.668;2022-07-21T11:00:15;28.70;70.30
45969;DHT22;31676;40.444;-3.668;2022-07-21T11:02:43;28.70;70.30
45969;DHT22;31676;40.444;-3.668;2022-07-21T11:05:08;28.70;70.30
45969;DHT22;31676;40.444;-3.668;2022-07-21T11:10:18;28.70;70.20
45969;DHT22;31676;40.444;-3.668;2022-07-21T11:12:57;28.70;70.20
45969;DHT22;31676;40.444;-3.668;2022-07-21T11:18:07;28.70;70.20
45969;DHT22;31676;40.444;-3.668;2022-07-21T11:20:33;28.70;70.10
45969;DHT22;31676;40.444;-3.668;2022-07-21T11:22:58;28.70;70.10
45969;DHT22;31676;40.444;-3.668;2022-07-21T11:25:29;28.70;70.10
45969;DHT22;31676;40.444;-3.668;2022-07-21T11:27:55;28.70;70.10
45969;DHT22;31676;40.444;-3.668;2022-07-21T11:30:20;28.70;70.10
45969;DHT22;31676;40.444;-3.668;2022-07-21T11:32:47;28.80;70.20
45969;DHT22;31676;40.444;-3.668;2022-07-21T11:35:13;28.80;70.20
45969;DHT22;31676;40.444;-3.668;2022-07-21T11:37:43;28.80;70.10
45969;DHT22;31676;40.444;-3.668;2022-07-21T11:40:15;28.80;70.10
45969;DHT22;31676;40.444;-3.668;2022-07-21T11:42:42;28.80;70.10
45969;DHT22;31676;40.444;-3.668;2022-07-21T11:45:08;28.80;70.10
45969;DHT22;31676;40.444;-3.668;2022-07-21T11:47:34;28.80;70.10
45969;DHT22;31676;40.444;-3.668;2022-07-21T11:50:00;28.80;70.00
45969;DHT22;31676;40.444;-3.668;2022-07-21T11:52:27;28.80;70.00
45969;DHT22;31676;40.444;-3.668;2022-07-21T11:54:54;28.80;70.00
45969;DHT22;31676;40.444;-3.668;2022-07-21T11:57:20;28.80;70.00
45969;DHT22;31676;40.444;-3.668;2022-07-21T11:59:46;28.80;69.90
45969;DHT22;31676;40.444;-3.668;2022-07-21T12:02:13;28.80;69.90
45969;DHT22;31676;40.444;-3.668;2022-07-21T12:07:15;28.80;69.90
45969;DHT22;31676;40.444;-3.668;2022-07-21T12:09:42;28.90;69.90
45969;DHT22;31676;40.444;-3.668;2022-07-21T12:12:08;28.80;69.90
45969;DHT22;31676;40.444;-3.668;2022-07-21T12:14:41;28.90;69.90
45969;DHT22;31676;40.444;-3.668;2022-07-21T12:17:06;28.90;69.90
45969;DHT22;31676;40.444;-3.668;2022-07-21T12:19:32;28.90;69.80
45969;DHT22;31676;40.444;-3.668;2022-07-21T12:21:58;28.90;69.80
45969;DHT22;31676;40.444;-3.668;2022-07-21T12:24:34;28.90;69.80
45969;DHT22;31676;40.444;-3.668;2022-07-21T12:27:10;28.90;69.80
45969;DHT22;31676;40.444;-3.668;2022-07-21T12:29:36;28.90;69.80
45969;DHT22;31676;40.444;-3.668;2022-07-21T12:32:02;28.90;69.80
45969;DHT22;31676;40.444;-3.668;2022-07-21T12:34:27;28.90;69.80
45969;DHT22;31676;40.444;-3.668;2022-07-21T12:36:53;28.90;69.80
45969;DHT22;31676;40.444;-3.668;2022-07-21T12:39:20;28.90;69.70
45969;DHT22;31676;40.444;-3.668;2022-07-21T12:42:05;29.00;69.80
45969;DHT22;31676;40.444;-3.668;2022-07-21T12:44:33;29.00;69.80
45969;DHT22;31676;40.444;-3.668;2022-07-21T12:52:21;29.00;69.80
45969;DHT22;31676;40.444;-3.668;2022-07-21T12:54:47;29.00;69.70
45969;DHT22;31676;40.444;-3.668;2022-07-21T12:57:13;29.00;69.70
45969;DHT22;31676;40.444;-3.668;2022-07-21T12:59:39;29.00;69.70
45969;DHT22;31676;40.444;-3.668;2022-07-21T13:02:04;29.00;69.70
45969;DHT22;31676;40.444;-3.668;2022-07-21T13:04:30;29.00;69.70
45969;DHT22;31676;40.444;-3.668;2022-07-21T13:06:56;29.00;69.70
45969;DHT22;31676;40.444;-3.668;2022-07-21T13:09:22;29.00;69.70
45969;DHT22;31676;40.444;-3.668;2022-07-21T13:11:48;29.00;69.70
45969;DHT22;31676;40.444;-3.668;2022-07-21T13:14:14;29.00;69.70
45969;DHT22;31676;40.444;-3.668;2022-07-21T13:16:39;29.00;69.70
45969;DHT22;31676;40.444;-3.668;2022-07-21T13:19:05;29.00;69.70
45969;DHT22;31676;40.444;-3.668;2022-07-21T13:21:31;29.00;69.70
45969;DHT22;31676;40.444;-3.668;2022-07-21T13:23:57;29.00;69.70
45969;DHT22;31676;40.444;-3.668;2022-07-21T13:26:23;29.10;69.70
45969;DHT22;31676;40.444;-3.668;2022-07-21T13:28:49;29.00;69.70
45969;DHT22;31676;40.444;-3.668;2022-07-21T13:31:15;29.10;69.70
45969;DHT22;31676;40.444;-3.668;2022-07-21T13:33:41;29.10;69.70
45969;DHT22;31676;40.444;-3.668;2022-07-21T13:36:08;29.10;69.70
45969;DHT22;31676;40.444;-3.668;2022-07-21T13:38:34;29.10;69.70
45969;DHT22;31676;40.444;-3.668;2022-07-21T13:41:00;29.10;69.70
45969;DHT22;31676;40.444;-3.668;2022-07-21T13:43:26;29.10;69.70
45969;DHT22;31676;40.444;-3.668;2022-07-21T13:45:51;29.10;69.70
45969;DHT22;31676;40.444;-3.668;2022-07-21T13:48:17;29.10;69.70
45969;DHT22;31676;40.444;-3.668;2022-07-21T13:50:43;29.10;69.70
45969;DHT22;31676;40.444;-3.668;2022-07-21T13:53:08;29.10;69.70
45969;DHT22;31676;40.444;-3.668;2022-07-21T13:55:34;29.10;69.70
45969;DHT22;31676;40.444;-3.668;2022-07-21T13:58:00;29.10;69.70
45969;DHT22;31676;40.444;-3.668;2022-07-21T14:00:26;29.10;69.70
45969;DHT22;31676;40.444;-3.668;2022-07-21T14:02:52;29.10;69.70
45969;DHT22;31676;40.444;-3.668;2022-07-21T14:05:17;29.10;69.70
45969;DHT22;31676;40.444;-3.668;2022-07-21T14:07:43;29.10;69.60
45969;DHT22;31676;40.444;-3.668;2022-07-21T14:10:09;29.10;69.70
45969;DHT22;31676;40.444;-3.668;2022-07-21T14:12:35;29.10;69.70
45969;DHT22;31676;40.444;-3.668;2022-07-21T14:15:00;29.10;69.70
45969;DHT22;31676;40.444;-3.668;2022-07-21T14:17:26;29.10;69.70
45969;DHT22;31676;40.444;-3.668;2022-07-21T14:19:52;29.10;69.70
45969;DHT22;31676;40.444;-3.668;2022-07-21T14:22:17;29.10;69.70
45969;DHT22;31676;40.444;-3.668;2022-07-21T14:24:45;29.10;69.70
45969;DHT22;31676;40.444;-3.668;2022-07-21T14:27:29;29.10;69.70
45969;DHT22;31676;40.444;-3.668;2022-07-21T14:29:55;29.10;69.70
45969;DHT22;31676;40.444;-3.668;2022-07-21T14:32:21;29.10;69.70
45969;DHT22;31676;40.444;-3.668;2022-07-21T14:34:51;29.10;69.70
45969;DHT22;31676;40.444;-3.668;2022-07-21T14:37:17;29.10;69.70
45969;DHT22;31676;40.444;-3.668;2022-07-21T14:39:44;29.10;69.70
45969;DHT22;31676;40.444;-3.668;2022-07-21T14:42:10;29.20;69.80
45969;DHT22;31676;40.444;-3.668;2022-07-21T14:44:36;29.20;69.80
45969;DHT22;31676;40.444;-3.668;2022-07-21T14:47:01;29.20;69.70
45969;DHT22;31676;40.444;-3.668;2022-07-21T14:49:27;29.20;69.70
45969;DHT22;31676;40.444;-3.668;2022-07-21T14:51:53;29.20;69.70
45969;DHT22;31676;40.444;-3.668;2022-07-21T14:54:19;29.20;69.70
45969;DHT22;31676;40.444;-3.668;2022-07-21T14:56:44;29.20;69.70
45969;DHT22;31676;40.444;-3.668;2022-07-21T14:59:11;29.20;69.70
45969;DHT22;31676;40.444;-3.668;2022-07-21T15:01:36;29.20;69.70
45969;DHT22;31676;40.444;-3.668;2022-07-21T15:04:02;29.20;69.70
45969;DHT22;31676;40.444;-3.668;2022-07-21T15:06:28;29.20;69.70
45969;DHT22;31676;40.444;-3.668;2022-07-21T15:08:54;29.20;69.70
45969;DHT22;31676;40.444;-3.668;2022-07-21T15:11:19;29.20;69.70
45969;DHT22;31676;40.444;-3.668;2022-07-21T15:13:45;29.20;69.70
45969;DHT22;31676;40.444;-3.668;2022-07-21T15:16:10;29.20;69.70
45969;DHT22;31676;40.444;-3.668;2022-07-21T15:18:36;29.20;69.70
45969;DHT22;31676;40.444;-3.668;2022-07-21T15:21:02;29.20;69.70
45969;DHT22;31676;40.444;-3.668;2022-07-21T15:23:28;29.20;69.70
45969;DHT22;31676;40.444;-3.668;2022-07-21T15:25:53;29.30;69.80
45969;DHT22;31676;40.444;-3.668;2022-07-21T15:28:19;29.20;69.70
45969;DHT22;31676;40.444;-3.668;2022-07-21T15:30:45;29.30;69.80
45969;DHT22;31676;40.444;-3.668;2022-07-21T15:33:11;29.30;69.80
45969;DHT22;31676;40.444;-3.668;2022-07-21T15:35:36;29.30;69.80
45969;DHT22;31676;40.444;-3.668;2022-07-21T15:38:02;29.30;69.70
45969;DHT22;31676;40.444;-3.668;2022-07-21T15:40:28;29.30;69.80